sensor_id;sensor_type;location;lat;lon;timestamp;P1;durP1;ratioP1;P2;durP2;ratioP2
31482;SDS011;18103;52.246;8.052;2022-11-27T00:00:33;6.47;;;3.67;;
31482;SDS011;18103;52.246;8.052;2022-11-27T00:02:59;17.63;;;4.53;;
31482;SDS011;18103;52.246;8.052;2022-11-27T00:05:24;16.37;;;3.77;;
31482;SDS011;18103;52.246;8.052;2022-11-27T00:07:53;8.33;;;3.43;;
31482;SDS011;18103;52.246;8.052;2022-11-27T00:10:18;8.67;;;3.50;;
31482;SDS011;18103;52.246;8.052;2022-11-27T00:12:44;8.10;;;3.10;;
31482;SDS011;18103;52.246;8.052;2022-11-27T00:15:09;8.87;;;3.97;;
31482;SDS011;18103;52.246;8.052;2022-11-27T00:17:37;6.43;;;3.50;;
31482;SDS011;18103;52.246;8.052;2022-11-27T00:20:03;12.47;;;2.90;;
31482;SDS011;18103;52.246;8.052;2022-11-27T00:22:29;8.00;;;4.23;;
31482;SDS011;18103;52.246;8.052;2022-11-27T00:24:55;10.73;;;3.87;;
31482;SDS011;18103;52.246;8.052;2022-11-27T00:27:20;9.00;;;3.80;;
31482;SDS011;18103;52.246;8.052;2022-11-27T00:29:45;11.43;;;4.50;;
31482;SDS011;18103;52.246;8.052;2022-11-27T00:32:14;12.33;;;3.43;;
31482;SDS011;18103;52.246;8.052;2022-11-27T00:34:40;7.50;;;2.80;;
31482;SDS011;18103;52.246;8.052;2022-11-27T00:37:05;8.03;;;4.53;;
31482;SDS011;18103;52.246;8.052;2022-11-27T00:39:31;9.33;;;2.57;;
31482;SDS011;18103;52.246;8.052;2022-11-27T00:41:57;10.53;;;3.33;;
31482;SDS011;18103;52.246;8.052;2022-11-27T00:44:22;15.37;;;4.07;;
31482;SDS011;18103;52.246;8.052;2022-11-27T00:46:47;15.67;;;3.87;;
31482;SDS011;18103;52.246;8.052;2022-11-27T00:49:13;15.37;;;4.73;;
31482;SDS011;18103;52.246;8.052;2022-11-27T00:51:40;11.87;;;2.30;;
31482;SDS011;18103;52.246;8.052;2022-11-27T00:54:05;11.33;;;3.97;;
31482;SDS011;18103;52.246;8.052;2022-11-27T00:56:35;14.67;;;3.63;;
31482;SDS011;18103;52.246;8.052;2022-11-27T00:59:02;7.03;;;3.47;;
31482;SDS011;18103;52.246;8.052;2022-11-27T01:01:30;9.37;;;4.40;;
31482;SDS011;18103;52.246;8.052;2022-11-27T01:03:58;21.17;;;4.90;;
31482;SDS011;18103;52.246;8.052;2022-11-27T01:06:25;20.13;;;6.17;;
31482;SDS011;18103;52.246;8.052;2022-11-27T01:08:51;6.20;;;4.03;;
31482;SDS011;18103;52.246;8.052;2022-11-27T01:11:22;12.37;;;4.53;;
31482;SDS011;18103;52.246;8.052;2022-11-27T01:13:50;10.43;;;4.13;;
31482;SDS011;18103;52.246;8.052;2022-11-27T01:16:17;10.97;;;4.53;;
31482;SDS011;18103;52.246;8.052;2022-11-27T01:18:44;11.57;;;4.90;;
31482;SDS011;18103;52.246;8.052;2022-11-27T01:21:14;14.57;;;4.97;;
31482;SDS011;18103;52.246;8.052;2022-11-27T01:23:41;10.90;;;4.73;;
31482;SDS011;18103;52.246;8.052;2022-11-27T01:26:07;18.07;;;5.87;;
31482;SDS011;18103;52.246;8.052;2022-11-27T01:28:33;15.53;;;5.60;;
31482;SDS011;18103;52.246;8.052;2022-11-27T01:31:03;9.03;;;4.83;;
31482;SDS011;18103;52.246;8.052;2022-11-27T01:33:33;13.73;;;5.77;;
31482;SDS011;18103;52.246;8.052;2022-11-27T01:36:02;15.40;;;5.53;;
31482;SDS011;18103;52.246;8.052;2022-11-27T01:38:30;12.43;;;5.20;;
31482;SDS011;18103;52.246;8.052;2022-11-27T01:40:59;13.20;;;6.27;;
31482;SDS011;18103;52.246;8.052;2022-11-27T01:43:34;15.87;;;5.43;;
31482;SDS011;18103;52.246;8.052;2022-11-27T01:48:49;13.90;;;5.40;;
31482;SDS011;18103;52.246;8.052;2022-11-27T01:51:17;9.97;;;5.20;;
31482;SDS011;18103;52.246;8.052;2022-11-27T01:53:44;8.80;;;4.17;;
31482;SDS011;18103;52.246;8.052;2022-11-27T01:56:09;12.53;;;4.30;;
31482;SDS011;18103;52.246;8.052;2022-11-27T01:58:35;15.73;;;5.37;;
31482;SDS011;18103;52.246;8.052;2022-11-27T02:01:01;9.23;;;5.03;;
31482;SDS011;18103;52.246;8.052;2022-11-27T02:03:28;16.77;;;4.80;;
31482;SDS011;18103;52.246;8.052;2022-11-27T02:05:54;7.37;;;4.07;;
31482;SDS011;18103;52.246;8.052;2022-11-27T02:08:19;9.47;;;4.87;;
31482;SDS011;18103;52.246;8.052;2022-11-27T02:10:50;10.73;;;5.03;;
31482;SDS011;18103;52.246;8.052;2022-11-27T02:24:21;9.57;;;4.47;;
31482;SDS011;18103;52.246;8.052;2022-11-27T02:29:55;7.97;;;4.07;;
31482;SDS011;18103;52.246;8.052;2022-11-27T02:32:26;10.40;;;5.23;;
31482;SDS011;18103;52.246;8.052;2022-11-27T02:35:04;13.83;;;5.10;;
31482;SDS011;18103;52.246;8.052;2022-11-27T02:37:46;12.00;;;4.87;;
31482;SDS011;18103;52.246;8.052;2022-11-27T02:40:22;7.70;;;3.57;;
31482;SDS011;18103;52.246;8.052;2022-11-27T02:43:07;11.80;;;3.90;;
31482;SDS011;18103;52.246;8.052;2022-11-27T02:45:48;13.63;;;4.93;;
31482;SDS011;18103;52.246;8.052;2022-11-27T02:48:17;10.30;;;4.37;;
31482;SDS011;18103;52.246;8.052;2022-11-27T02:50:47;9.80;;;3.53;;
31482;SDS011;18103;52.246;8.052;2022-11-27T02:53:22;12.47;;;4.30;;
31482;SDS011;18103;52.246;8.052;2022-11-27T02:55:52;12.57;;;4.97;;
31482;SDS011;18103;52.246;8.052;2022-11-27T02:58:19;8.97;;;4.23;;
31482;SDS011;18103;52.246;8.052;2022-11-27T03:00:47;13.70;;;4.30;;
31482;SDS011;18103;52.246;8.052;2022-11-27T03:03:15;9.17;;;3.90;;
31482;SDS011;18103;52.246;8.052;2022-11-27T03:05:45;7.73;;;4.03;;
31482;SDS011;18103;52.246;8.052;2022-11-27T03:08:20;10.60;;;3.67;;
31482;SDS011;18103;52.246;8.052;2022-11-27T03:11:04;7.43;;;4.20;;
31482;SDS011;18103;52.246;8.052;2022-11-27T03:13:32;11.77;;;4.43;;
31482;SDS011;18103;52.246;8.052;2022-11-27T03:18:46;6.27;;;4.13;;
31482;SDS011;18103;52.246;8.052;2022-11-27T03:21:27;11.47;;;4.27;;
31482;SDS011;18103;52.246;8.052;2022-11-27T03:24:02;14.50;;;4.47;;
31482;SDS011;18103;52.246;8.052;2022-11-27T03:26:29;7.33;;;3.63;;
31482;SDS011;18103;52.246;8.052;2022-11-27T03:28:55;7.87;;;3.77;;
31482;SDS011;18103;52.246;8.052;2022-11-27T03:31:22;9.70;;;4.37;;
31482;SDS011;18103;52.246;8.052;2022-11-27T03:33:49;10.43;;;3.80;;
31482;SDS011;18103;52.246;8.052;2022-11-27T03:36:16;15.07;;;4.37;;
31482;SDS011;18103;52.246;8.052;2022-11-27T03:38:43;8.30;;;4.60;;
31482;SDS011;18103;52.246;8.052;2022-11-27T03:43:51;15.03;;;4.37;;
31482;SDS011;18103;52.246;8.052;2022-11-27T03:55:12;10.07;;;4.90;;
31482;SDS011;18103;52.246;8.052;2022-11-27T04:00:21;8.27;;;4.17;;
31482;SDS011;18103;52.246;8.052;2022-11-27T04:02:51;8.23;;;3.53;;
31482;SDS011;18103;52.246;8.052;2022-11-27T04:05:18;15.73;;;4.50;;
31482;SDS011;18103;52.246;8.052;2022-11-27T04:07:44;12.23;;;4.83;;
31482;SDS011;18103;52.246;8.052;2022-11-27T04:10:10;13.37;;;4.63;;
31482;SDS011;18103;52.246;8.052;2022-11-27T04:12:36;9.27;;;4.50;;
31482;SDS011;18103;52.246;8.052;2022-11-27T04:15:02;12.77;;;5.00;;
31482;SDS011;18103;52.246;8.052;2022-11-27T04:17:28;10.70;;;4.20;;
31482;SDS011;18103;52.246;8.052;2022-11-27T04:19:53;11.50;;;5.63;;
31482;SDS011;18103;52.246;8.052;2022-11-27T04:22:19;9.97;;;4.27;;
31482;SDS011;18103;52.246;8.052;2022-11-27T04:24:44;12.70;;;4.57;;
31482;SDS011;18103;52.246;8.052;2022-11-27T04:27:10;8.73;;;4.20;;
31482;SDS011;18103;52.246;8.052;2022-11-27T04:29:35;9.17;;;4.73;;
31482;SDS011;18103;52.246;8.052;2022-11-27T04:32:02;11.60;;;4.90;;
31482;SDS011;18103;52.246;8.052;2022-11-27T04:34:28;10.73;;;4.70;;
31482;SDS011;18103;52.246;8.052;2022-11-27T04:36:53;12.50;;;4.80;;
31482;SDS011;18103;52.246;8.052;2022-11-27T04:39:19;12.70;;;5.30;;
31482;SDS011;18103;52.246;8.052;2022-11-27T04:41:44;10.50;;;4.37;;
31482;SDS011;18103;52.246;8.052;2022-11-27T04:44:10;11.30;;;5.60;;
31482;SDS011;18103;52.246;8.052;2022-11-27T04:46:36;13.37;;;5.90;;
31482;SDS011;18103;52.246;8.052;2022-11-27T04:49:02;12.73;;;6.07;;
31482;SDS011;18103;52.246;8.052;2022-11-27T04:51:27;6.87;;;4.77;;
31482;SDS011;18103;52.246;8.052;2022-11-27T04:53:53;4.33;;;2.67;;
31482;SDS011;18103;52.246;8.052;2022-11-27T04:56:18;12.17;;;4.17;;
31482;SDS011;18103;52.246;8.052;2022-11-27T04:58:44;7.03;;;3.57;;
31482;SDS011;18103;52.246;8.052;2022-11-27T05:01:09;15.67;;;5.80;;
31482;SDS011;18103;52.246;8.052;2022-11-27T05:03:34;10.00;;;4.70;;
31482;SDS011;18103;52.246;8.052;2022-11-27T05:06:00;9.60;;;4.37;;
31482;SDS011;18103;52.246;8.052;2022-11-27T05:08:27;10.43;;;4.57;;
31482;SDS011;18103;52.246;8.052;2022-11-27T05:11:03;6.00;;;3.57;;
31482;SDS011;18103;52.246;8.052;2022-11-27T05:13:35;11.03;;;5.00;;
31482;SDS011;18103;52.246;8.052;2022-11-27T05:16:01;9.07;;;3.60;;
31482;SDS011;18103;52.246;8.052;2022-11-27T05:18:26;11.77;;;5.07;;
31482;SDS011;18103;52.246;8.052;2022-11-27T05:20:55;9.00;;;4.53;;
31482;SDS011;18103;52.246;8.052;2022-11-27T05:23:22;3.80;;;1.87;;
31482;SDS011;18103;52.246;8.052;2022-11-27T05:25:48;8.40;;;4.50;;
31482;SDS011;18103;52.246;8.052;2022-11-27T05:28:13;11.07;;;5.23;;
31482;SDS011;18103;52.246;8.052;2022-11-27T05:30:38;8.63;;;4.17;;
31482;SDS011;18103;52.246;8.052;2022-11-27T05:33:04;6.03;;;2.43;;
31482;SDS011;18103;52.246;8.052;2022-11-27T05:35:29;11.00;;;5.00;;
31482;SDS011;18103;52.246;8.052;2022-11-27T05:37:55;12.67;;;4.60;;
31482;SDS011;18103;52.246;8.052;2022-11-27T05:40:20;9.33;;;4.97;;
31482;SDS011;18103;52.246;8.052;2022-11-27T05:42:45;8.73;;;3.80;;
31482;SDS011;18103;52.246;8.052;2022-11-27T05:45:11;14.30;;;5.80;;
31482;SDS011;18103;52.246;8.052;2022-11-27T05:47:36;9.93;;;4.63;;
31482;SDS011;18103;52.246;8.052;2022-11-27T05:50:01;7.43;;;3.50;;
31482;SDS011;18103;52.246;8.052;2022-11-27T05:52:27;10.03;;;5.07;;
31482;SDS011;18103;52.246;8.052;2022-11-27T05:54:52;14.87;;;5.53;;
31482;SDS011;18103;52.246;8.052;2022-11-27T05:57:20;12.40;;;4.67;;
31482;SDS011;18103;52.246;8.052;2022-11-27T05:59:45;13.43;;;4.57;;
31482;SDS011;18103;52.246;8.052;2022-11-27T06:02:11;7.20;;;3.93;;
31482;SDS011;18103;52.246;8.052;2022-11-27T06:04:36;8.70;;;4.03;;
31482;SDS011;18103;52.246;8.052;2022-11-27T06:07:02;12.07;;;4.47;;
31482;SDS011;18103;52.246;8.052;2022-11-27T06:09:27;9.80;;;5.07;;
31482;SDS011;18103;52.246;8.052;2022-11-27T06:11:52;10.73;;;4.50;;
31482;SDS011;18103;52.246;8.052;2022-11-27T06:14:18;7.33;;;3.97;;
31482;SDS011;18103;52.246;8.052;2022-11-27T06:16:43;10.37;;;3.57;;
31482;SDS011;18103;52.246;8.052;2022-11-27T06:19:09;15.60;;;4.60;;
31482;SDS011;18103;52.246;8.052;2022-11-27T06:21:34;11.93;;;3.17;;
31482;SDS011;18103;52.246;8.052;2022-11-27T06:23:59;9.23;;;4.20;;
31482;SDS011;18103;52.246;8.052;2022-11-27T06:26:26;9.27;;;3.33;;
31482;SDS011;18103;52.246;8.052;2022-11-27T06:28:54;8.13;;;3.63;;
31482;SDS011;18103;52.246;8.052;2022-11-27T06:31:21;8.20;;;4.33;;
31482;SDS011;18103;52.246;8.052;2022-11-27T06:33:49;11.37;;;4.37;;
31482;SDS011;18103;52.246;8.052;2022-11-27T06:36:16;10.17;;;4.47;;
31482;SDS011;18103;52.246;8.052;2022-11-27T06:38:43;14.33;;;4.27;;
31482;SDS011;18103;52.246;8.052;2022-11-27T06:41:10;12.07;;;4.43;;
31482;SDS011;18103;52.246;8.052;2022-11-27T06:43:36;10.00;;;3.90;;
31482;SDS011;18103;52.246;8.052;2022-11-27T06:46:02;6.93;;;3.67;;
31482;SDS011;18103;52.246;8.052;2022-11-27T06:48:30;7.30;;;3.87;;
31482;SDS011;18103;52.246;8.052;2022-11-27T06:50:59;11.43;;;5.27;;
31482;SDS011;18103;52.246;8.052;2022-11-27T06:53:30;13.50;;;5.00;;
31482;SDS011;18103;52.246;8.052;2022-11-27T06:55:57;17.03;;;5.30;;
31482;SDS011;18103;52.246;8.052;2022-11-27T06:58:23;10.83;;;4.90;;
31482;SDS011;18103;52.246;8.052;2022-11-27T07:00:48;12.27;;;5.07;;
31482;SDS011;18103;52.246;8.052;2022-11-27T07:03:14;14.80;;;4.43;;
31482;SDS011;18103;52.246;8.052;2022-11-27T07:05:39;14.30;;;5.17;;
31482;SDS011;18103;52.246;8.052;2022-11-27T07:08:05;13.87;;;4.60;;
31482;SDS011;18103;52.246;8.052;2022-11-27T07:10:33;6.90;;;4.20;;
31482;SDS011;18103;52.246;8.052;2022-11-27T07:13:00;10.27;;;4.03;;
31482;SDS011;18103;52.246;8.052;2022-11-27T07:15:26;8.80;;;4.00;;
31482;SDS011;18103;52.246;8.052;2022-11-27T07:17:51;16.17;;;4.70;;
31482;SDS011;18103;52.246;8.052;2022-11-27T07:20:17;6.67;;;3.63;;
31482;SDS011;18103;52.246;8.052;2022-11-27T07:22:42;9.50;;;4.47;;
31482;SDS011;18103;52.246;8.052;2022-11-27T07:25:08;10.80;;;3.93;;
31482;SDS011;18103;52.246;8.052;2022-11-27T07:27:33;11.37;;;4.23;;
31482;SDS011;18103;52.246;8.052;2022-11-27T07:29:59;10.57;;;4.43;;
31482;SDS011;18103;52.246;8.052;2022-11-27T07:32:24;10.77;;;4.90;;
31482;SDS011;18103;52.246;8.052;2022-11-27T07:34:50;8.43;;;4.43;;
31482;SDS011;18103;52.246;8.052;2022-11-27T07:37:15;16.13;;;4.23;;
31482;SDS011;18103;52.246;8.052;2022-11-27T07:39:40;13.47;;;5.20;;
31482;SDS011;18103;52.246;8.052;2022-11-27T07:42:06;12.90;;;4.67;;
31482;SDS011;18103;52.246;8.052;2022-11-27T07:44:31;9.67;;;4.50;;
31482;SDS011;18103;52.246;8.052;2022-11-27T07:46:56;13.40;;;5.50;;
31482;SDS011;18103;52.246;8.052;2022-11-27T07:49:23;13.67;;;4.60;;
31482;SDS011;18103;52.246;8.052;2022-11-27T07:51:48;8.97;;;4.33;;
31482;SDS011;18103;52.246;8.052;2022-11-27T07:54:14;11.20;;;4.37;;
31482;SDS011;18103;52.246;8.052;2022-11-27T07:56:39;12.10;;;4.17;;
31482;SDS011;18103;52.246;8.052;2022-11-27T07:59:04;11.20;;;5.43;;
31482;SDS011;18103;52.246;8.052;2022-11-27T08:01:30;5.30;;;2.10;;
31482;SDS011;18103;52.246;8.052;2022-11-27T08:03:55;8.53;;;3.83;;
31482;SDS011;18103;52.246;8.052;2022-11-27T08:06:22;10.13;;;4.30;;
31482;SDS011;18103;52.246;8.052;2022-11-27T08:08:49;17.97;;;5.27;;
31482;SDS011;18103;52.246;8.052;2022-11-27T08:11:20;13.97;;;4.10;;
31482;SDS011;18103;52.246;8.052;2022-11-27T08:13:53;16.60;;;4.93;;
31482;SDS011;18103;52.246;8.052;2022-11-27T08:16:21;8.13;;;3.83;;
31482;SDS011;18103;52.246;8.052;2022-11-27T08:18:46;15.97;;;5.40;;
31482;SDS011;18103;52.246;8.052;2022-11-27T08:21:12;11.40;;;4.63;;
31482;SDS011;18103;52.246;8.052;2022-11-27T08:23:38;10.43;;;4.23;;
31482;SDS011;18103;52.246;8.052;2022-11-27T08:26:04;9.20;;;3.87;;
31482;SDS011;18103;52.246;8.052;2022-11-27T08:28:30;11.40;;;4.20;;
31482;SDS011;18103;52.246;8.052;2022-11-27T08:30:56;9.90;;;4.90;;
31482;SDS011;18103;52.246;8.052;2022-11-27T08:33:26;15.87;;;5.13;;
31482;SDS011;18103;52.246;8.052;2022-11-27T08:35:52;6.50;;;2.50;;
31482;SDS011;18103;52.246;8.052;2022-11-27T08:38:18;11.47;;;4.40;;
31482;SDS011;18103;52.246;8.052;2022-11-27T08:40:44;6.43;;;2.40;;
31482;SDS011;18103;52.246;8.052;2022-11-27T08:43:10;7.13;;;3.10;;
31482;SDS011;18103;52.246;8.052;2022-11-27T08:45:38;10.33;;;3.50;;
31482;SDS011;18103;52.246;8.052;2022-11-27T08:48:04;5.07;;;3.30;;
31482;SDS011;18103;52.246;8.052;2022-11-27T08:50:29;10.27;;;3.17;;
31482;SDS011;18103;52.246;8.052;2022-11-27T08:52:55;8.17;;;3.80;;
31482;SDS011;18103;52.246;8.052;2022-11-27T08:55:21;9.37;;;3.70;;
31482;SDS011;18103;52.246;8.052;2022-11-27T08:57:46;7.97;;;3.93;;
31482;SDS011;18103;52.246;8.052;2022-11-27T09:00:12;8.17;;;4.27;;
31482;SDS011;18103;52.246;8.052;2022-11-27T09:02:38;6.83;;;3.13;;
31482;SDS011;18103;52.246;8.052;2022-11-27T09:05:04;11.97;;;3.50;;
31482;SDS011;18103;52.246;8.052;2022-11-27T09:07:29;9.43;;;4.00;;
31482;SDS011;18103;52.246;8.052;2022-11-27T09:09:55;6.50;;;2.90;;
31482;SDS011;18103;52.246;8.052;2022-11-27T09:12:20;5.40;;;3.13;;
31482;SDS011;18103;52.246;8.052;2022-11-27T09:14:46;4.70;;;2.57;;
31482;SDS011;18103;52.246;8.052;2022-11-27T09:17:17;5.23;;;2.43;;
31482;SDS011;18103;52.246;8.052;2022-11-27T09:19:43;11.50;;;2.80;;
31482;SDS011;18103;52.246;8.052;2022-11-27T09:22:10;9.33;;;4.07;;
31482;SDS011;18103;52.246;8.052;2022-11-27T09:24:39;6.30;;;2.93;;
31482;SDS011;18103;52.246;8.052;2022-11-27T09:27:04;10.10;;;3.93;;
31482;SDS011;18103;52.246;8.052;2022-11-27T09:29:34;3.10;;;2.07;;
31482;SDS011;18103;52.246;8.052;2022-11-27T09:31:59;7.90;;;3.53;;
31482;SDS011;18103;52.246;8.052;2022-11-27T09:34:25;5.03;;;2.97;;
31482;SDS011;18103;52.246;8.052;2022-11-27T09:36:51;7.13;;;3.30;;
31482;SDS011;18103;52.246;8.052;2022-11-27T09:39:16;8.87;;;3.03;;
31482;SDS011;18103;52.246;8.052;2022-11-27T09:46:48;5.57;;;2.97;;
31482;SDS011;18103;52.246;8.052;2022-11-27T09:49:17;8.20;;;3.57;;
31482;SDS011;18103;52.246;8.052;2022-11-27T09:52:05;6.13;;;2.37;;
31482;SDS011;18103;52.246;8.052;2022-11-27T09:57:41;5.03;;;2.37;;
31482;SDS011;18103;52.246;8.052;2022-11-27T10:00:17;8.43;;;3.33;;
31482;SDS011;18103;52.246;8.052;2022-11-27T10:02:43;5.43;;;2.67;;
31482;SDS011;18103;52.246;8.052;2022-11-27T10:05:17;4.67;;;2.40;;
31482;SDS011;18103;52.246;8.052;2022-11-27T10:16:00;6.83;;;3.30;;
31482;SDS011;18103;52.246;8.052;2022-11-27T10:18:43;7.97;;;3.57;;
31482;SDS011;18103;52.246;8.052;2022-11-27T10:27:28;11.67;;;4.07;;
31482;SDS011;18103;52.246;8.052;2022-11-27T10:30:16;11.83;;;4.13;;
31482;SDS011;18103;52.246;8.052;2022-11-27T10:32:44;7.97;;;2.37;;
31482;SDS011;18103;52.246;8.052;2022-11-27T10:35:15;8.03;;;3.73;;
31482;SDS011;18103;52.246;8.052;2022-11-27T10:37:47;10.17;;;3.93;;
31482;SDS011;18103;52.246;8.052;2022-11-27T10:40:33;10.93;;;3.90;;
31482;SDS011;18103;52.246;8.052;2022-11-27T10:43:14;5.57;;;3.03;;
31482;SDS011;18103;52.246;8.052;2022-11-27T10:48:23;9.80;;;3.57;;
31482;SDS011;18103;52.246;8.052;2022-11-27T10:50:49;15.53;;;3.90;;
31482;SDS011;18103;52.246;8.052;2022-11-27T10:53:25;6.30;;;2.40;;
31482;SDS011;18103;52.246;8.052;2022-11-27T10:58:55;6.30;;;2.53;;
31482;SDS011;18103;52.246;8.052;2022-11-27T11:01:28;5.53;;;2.70;;
31482;SDS011;18103;52.246;8.052;2022-11-27T11:04:07;5.87;;;2.37;;
31482;SDS011;18103;52.246;8.052;2022-11-27T11:06:39;6.03;;;2.53;;
31482;SDS011;18103;52.246;8.052;2022-11-27T11:11:39;8.50;;;2.57;;
31482;SDS011;18103;52.246;8.052;2022-11-27T11:14:14;8.27;;;3.03;;
31482;SDS011;18103;52.246;8.052;2022-11-27T11:16:42;16.37;;;3.30;;
31482;SDS011;18103;52.246;8.052;2022-11-27T11:21:57;6.33;;;2.30;;
31482;SDS011;18103;52.246;8.052;2022-11-27T11:24:31;6.67;;;2.63;;
31482;SDS011;18103;52.246;8.052;2022-11-27T11:27:02;9.00;;;2.53;;
31482;SDS011;18103;52.246;8.052;2022-11-27T11:32:11;6.73;;;2.73;;
31482;SDS011;18103;52.246;8.052;2022-11-27T11:34:44;7.97;;;2.97;;
31482;SDS011;18103;52.246;8.052;2022-11-27T11:37:22;6.27;;;2.77;;
31482;SDS011;18103;52.246;8.052;2022-11-27T11:39:52;5.37;;;2.60;;
31482;SDS011;18103;52.246;8.052;2022-11-27T11:45:31;7.17;;;2.83;;
31482;SDS011;18103;52.246;8.052;2022-11-27T11:47:59;5.83;;;2.70;;
31482;SDS011;18103;52.246;8.052;2022-11-27T11:50:28;7.33;;;3.00;;
31482;SDS011;18103;52.246;8.052;2022-11-27T11:56:00;5.87;;;2.43;;
31482;SDS011;18103;52.246;8.052;2022-11-27T11:58:48;6.50;;;2.53;;
31482;SDS011;18103;52.246;8.052;2022-11-27T12:15:28;5.00;;;2.90;;
31482;SDS011;18103;52.246;8.052;2022-11-27T12:18:00;6.63;;;3.97;;
31482;SDS011;18103;52.246;8.052;2022-11-27T12:23:22;6.40;;;3.17;;
31482;SDS011;18103;52.246;8.052;2022-11-27T12:39:24;4.97;;;2.77;;
31482;SDS011;18103;52.246;8.052;2022-11-27T12:42:01;9.53;;;2.73;;
31482;SDS011;18103;52.246;8.052;2022-11-27T12:47:41;5.10;;;2.80;;
31482;SDS011;18103;52.246;8.052;2022-11-27T12:50:20;8.20;;;2.20;;
31482;SDS011;18103;52.246;8.052;2022-11-27T12:55:57;4.50;;;1.97;;
31482;SDS011;18103;52.246;8.052;2022-11-27T12:58:50;4.43;;;1.90;;
31482;SDS011;18103;52.246;8.052;2022-11-27T13:01:35;8.20;;;2.47;;
31482;SDS011;18103;52.246;8.052;2022-11-27T13:07:19;4.40;;;2.30;;
31482;SDS011;18103;52.246;8.052;2022-11-27T13:13:03;3.73;;;1.97;;
31482;SDS011;18103;52.246;8.052;2022-11-27T13:15:43;5.93;;;3.00;;
31482;SDS011;18103;52.246;8.052;2022-11-27T13:18:19;9.40;;;4.20;;
31482;SDS011;18103;52.246;8.052;2022-11-27T13:21:12;5.87;;;2.97;;
31482;SDS011;18103;52.246;8.052;2022-11-27T13:23:52;8.47;;;3.60;;
31482;SDS011;18103;52.246;8.052;2022-11-27T13:26:26;5.10;;;2.67;;
31482;SDS011;18103;52.246;8.052;2022-11-27T13:28:56;8.47;;;2.77;;
31482;SDS011;18103;52.246;8.052;2022-11-27T13:31:29;4.63;;;2.27;;
31482;SDS011;18103;52.246;8.052;2022-11-27T13:34:30;3.50;;;1.83;;
31482;SDS011;18103;52.246;8.052;2022-11-27T13:36:57;4.43;;;2.20;;
31482;SDS011;18103;52.246;8.052;2022-11-27T13:44:40;8.80;;;2.17;;
31482;SDS011;18103;52.246;8.052;2022-11-27T13:47:09;4.07;;;1.70;;
31482;SDS011;18103;52.246;8.052;2022-11-27T13:49:37;4.13;;;2.00;;
31482;SDS011;18103;52.246;8.052;2022-11-27T13:52:13;7.43;;;2.20;;
31482;SDS011;18103;52.246;8.052;2022-11-27T13:57:23;7.23;;;2.27;;
31482;SDS011;18103;52.246;8.052;2022-11-27T14:00:09;5.47;;;1.77;;
31482;SDS011;18103;52.246;8.052;2022-11-27T14:02:38;6.23;;;2.40;;
31482;SDS011;18103;52.246;8.052;2022-11-27T14:05:06;5.03;;;1.93;;
31482;SDS011;18103;52.246;8.052;2022-11-27T14:07:39;5.13;;;1.97;;
31482;SDS011;18103;52.246;8.052;2022-11-27T14:10:08;3.17;;;1.90;;
31482;SDS011;18103;52.246;8.052;2022-11-27T14:12:37;3.97;;;2.03;;
31482;SDS011;18103;52.246;8.052;2022-11-27T14:15:09;5.17;;;2.10;;
31482;SDS011;18103;52.246;8.052;2022-11-27T14:17:49;3.77;;;1.90;;
31482;SDS011;18103;52.246;8.052;2022-11-27T14:22:45;9.20;;;3.40;;
31482;SDS011;18103;52.246;8.052;2022-11-27T14:27:41;10.70;;;3.03;;
31482;SDS011;18103;52.246;8.052;2022-11-27T14:30:10;12.33;;;2.27;;
31482;SDS011;18103;52.246;8.052;2022-11-27T14:32:47;17.03;;;3.60;;
31482;SDS011;18103;52.246;8.052;2022-11-27T14:35:23;7.73;;;2.30;;
31482;SDS011;18103;52.246;8.052;2022-11-27T14:37:51;7.83;;;2.67;;
31482;SDS011;18103;52.246;8.052;2022-11-27T14:40:20;5.70;;;2.83;;
31482;SDS011;18103;52.246;8.052;2022-11-27T14:42:50;5.33;;;2.60;;
31482;SDS011;18103;52.246;8.052;2022-11-27T14:45:19;8.57;;;2.13;;
31482;SDS011;18103;52.246;8.052;2022-11-27T14:47:47;7.23;;;2.13;;
31482;SDS011;18103;52.246;8.052;2022-11-27T14:50:14;6.20;;;3.70;;
31482;SDS011;18103;52.246;8.052;2022-11-27T14:52:41;3.30;;;1.90;;
31482;SDS011;18103;52.246;8.052;2022-11-27T14:55:12;6.27;;;2.80;;
31482;SDS011;18103;52.246;8.052;2022-11-27T14:57:39;5.90;;;2.60;;
31482;SDS011;18103;52.246;8.052;2022-11-27T15:02:42;4.67;;;2.43;;
31482;SDS011;18103;52.246;8.052;2022-11-27T15:07:52;5.53;;;2.57;;
31482;SDS011;18103;52.246;8.052;2022-11-27T15:10:38;6.13;;;2.50;;
31482;SDS011;18103;52.246;8.052;2022-11-27T15:13:06;7.23;;;2.47;;
31482;SDS011;18103;52.246;8.052;2022-11-27T15:15:42;5.50;;;2.30;;
31482;SDS011;18103;52.246;8.052;2022-11-27T15:18:13;4.77;;;2.07;;
31482;SDS011;18103;52.246;8.052;2022-11-27T15:20:47;4.63;;;2.20;;
31482;SDS011;18103;52.246;8.052;2022-11-27T15:25:51;10.63;;;2.60;;
31482;SDS011;18103;52.246;8.052;2022-11-27T15:29:21;8.47;;;2.50;;
31482;SDS011;18103;52.246;8.052;2022-11-27T15:31:28;7.30;;;2.23;;
31482;SDS011;18103;52.246;8.052;2022-11-27T15:36:55;3.30;;;1.97;;
31482;SDS011;18103;52.246;8.052;2022-11-27T15:42:09;3.87;;;2.40;;
31482;SDS011;18103;52.246;8.052;2022-11-27T15:44:34;3.37;;;2.10;;
31482;SDS011;18103;52.246;8.052;2022-11-27T15:47:00;5.60;;;2.47;;
31482;SDS011;18103;52.246;8.052;2022-11-27T15:49:28;3.77;;;2.03;;
31482;SDS011;18103;52.246;8.052;2022-11-27T15:51:54;11.27;;;2.93;;
31482;SDS011;18103;52.246;8.052;2022-11-27T15:54:21;7.93;;;3.07;;
31482;SDS011;18103;52.246;8.052;2022-11-27T15:56:47;4.93;;;2.70;;
31482;SDS011;18103;52.246;8.052;2022-11-27T15:59:13;3.80;;;1.90;;
31482;SDS011;18103;52.246;8.052;2022-11-27T16:01:39;5.70;;;2.33;;
31482;SDS011;18103;52.246;8.052;2022-11-27T16:04:05;5.13;;;2.50;;
31482;SDS011;18103;52.246;8.052;2022-11-27T16:06:30;4.83;;;2.20;;
31482;SDS011;18103;52.246;8.052;2022-11-27T16:08:56;4.67;;;2.00;;
31482;SDS011;18103;52.246;8.052;2022-11-27T16:11:24;6.17;;;2.27;;
31482;SDS011;18103;52.246;8.052;2022-11-27T16:13:51;7.50;;;2.40;;
31482;SDS011;18103;52.246;8.052;2022-11-27T16:16:16;10.63;;;2.57;;
31482;SDS011;18103;52.246;8.052;2022-11-27T16:18:42;9.43;;;3.07;;
31482;SDS011;18103;52.246;8.052;2022-11-27T16:21:09;7.00;;;2.90;;
31482;SDS011;18103;52.246;8.052;2022-11-27T16:23:37;6.70;;;2.07;;
31482;SDS011;18103;52.246;8.052;2022-11-27T16:26:05;4.87;;;2.20;;
31482;SDS011;18103;52.246;8.052;2022-11-27T16:28:31;8.93;;;2.13;;
31482;SDS011;18103;52.246;8.052;2022-11-27T16:30:58;2.83;;;2.03;;
31482;SDS011;18103;52.246;8.052;2022-11-27T16:33:29;3.77;;;2.53;;
31482;SDS011;18103;52.246;8.052;2022-11-27T16:36:02;3.00;;;1.90;;
31482;SDS011;18103;52.246;8.052;2022-11-27T16:38:29;4.37;;;2.53;;
31482;SDS011;18103;52.246;8.052;2022-11-27T16:40:58;5.97;;;1.97;;
31482;SDS011;18103;52.246;8.052;2022-11-27T16:43:32;4.97;;;2.33;;
31482;SDS011;18103;52.246;8.052;2022-11-27T16:46:02;5.23;;;2.10;;
31482;SDS011;18103;52.246;8.052;2022-11-27T16:48:30;6.80;;;2.50;;
31482;SDS011;18103;52.246;8.052;2022-11-27T16:51:03;4.97;;;2.10;;
31482;SDS011;18103;52.246;8.052;2022-11-27T16:53:31;8.33;;;2.83;;
31482;SDS011;18103;52.246;8.052;2022-11-27T16:55:57;7.17;;;2.77;;
31482;SDS011;18103;52.246;8.052;2022-11-27T16:58:22;7.13;;;2.90;;
31482;SDS011;18103;52.246;8.052;2022-11-27T17:00:48;6.80;;;2.83;;
31482;SDS011;18103;52.246;8.052;2022-11-27T17:03:13;7.60;;;2.90;;
31482;SDS011;18103;52.246;8.052;2022-11-27T17:05:40;5.63;;;2.37;;
31482;SDS011;18103;52.246;8.052;2022-11-27T17:08:05;5.70;;;2.10;;
31482;SDS011;18103;52.246;8.052;2022-11-27T17:10:31;7.40;;;2.17;;
31482;SDS011;18103;52.246;8.052;2022-11-27T17:12:56;5.43;;;2.40;;
31482;SDS011;18103;52.246;8.052;2022-11-27T17:15:22;6.30;;;1.83;;
31482;SDS011;18103;52.246;8.052;2022-11-27T17:17:47;2.67;;;1.80;;